Time;durP1;ratioP1;P1;durP2;ratioP2;P2;SDS_P1;SDS_P2;PMS_P1;PMS_P2;Temp;Humidity;BMP_temperature;BMP_pressure;BME280_temperature;BME280_humidity;BME280_pressure;Samples;Min_cycle;Max_cycle;Signal;HPM_P1;HPM_P2
2024/01/31 00:03:24;;;;;;;13.57;12.18;;;;;;;10.34;90.92;101787.63;10382755;28;20625;-61
2024/01/31 00:08:27;;;;;;;12.88;11.57;;;;;;;10.34;90.98;101769.00;10381293;28;20183;-60
2024/01/31 00:13:28;;;;;;;11.70;10.50;;;;;;;10.36;90.71;101780.44;10390565;28;20654;-61
2024/01/31 00:18:29;;;;;;;12.40;11.07;;;;;;;10.35;90.36;101768.06;10379868;28;20053;-60
2024/01/31 00:23:31;;;;;;;11.20;10.10;;;;;;;10.33;90.67;101780.53;10373919;28;20144;-62
2024/01/31 00:28:33;;;;;;;11.50;10.18;;;;;;;10.29;90.53;101779.88;10381184;28;20046;-60
2024/01/31 00:33:35;;;;;;;9.55;8.63;;;;;;;10.34;90.03;101780.50;10387212;28;20170;-62
2024/01/31 00:38:36;;;;;;;11.65;10.45;;;;;;;10.36;89.38;101780.44;10385646;28;20269;-62
2024/01/31 00:43:38;;;;;;;12.00;10.82;;;;;;;9.89;89.17;101703.09;10384832;28;20059;-63
2024/01/31 00:48:40;;;;;;;10.65;9.52;;;;;;;10.37;89.23;101782.13;10388855;28;20089;-61
2024/01/31 00:53:41;;;;;;;11.30;10.18;;;;;;;10.35;88.98;101762.75;10391337;28;20187;-62
2024/01/31 00:58:43;;;;;;;12.20;9.80;;;;;;;10.35;88.85;101776.91;10387470;28;20144;-61
2024/01/31 01:03:44;;;;;;;10.18;8.82;;;;;;;10.37;88.15;101775.03;10395842;28;20056;-61
2024/01/31 01:08:46;;;;;;;7.60;6.85;;;;;;;10.36;85.98;101780.44;10394114;28;20052;-60
2024/01/31 01:13:49;;;;;;;7.03;5.70;;;;;;;10.36;84.56;101785.75;10389362;28;20144;-61
2024/01/31 01:18:50;;;;;;;6.53;5.63;;;;;;;10.40;83.59;101785.50;10392894;28;20053;-61
2024/01/31 01:23:52;;;;;;;7.82;5.85;;;;;;;10.38;82.84;101781.19;10389069;28;20129;-61
2024/01/31 01:28:54;;;;;;;7.45;5.13;;;;;;;10.39;82.17;101777.59;10383046;28;20702;-62
2024/01/31 01:33:55;;;;;;;6.18;4.55;;;;;;;10.37;81.19;101780.34;10383941;28;20072;-62
2024/01/31 01:38:57;;;;;;;6.82;5.22;;;;;;;10.37;80.72;101782.13;10392283;28;20060;-62
2024/01/31 01:43:58;;;;;;;6.70;4.80;;;;;;;10.35;79.81;101784.88;10353186;28;20053;-61
2024/01/31 01:49:00;;;;;;;6.55;4.13;;;;;;;10.36;79.13;101781.28;10389077;28;20143;-61
2024/01/31 01:54:02;;;;;;;5.93;4.43;;;;;;;10.36;78.66;101788.44;10374187;28;20045;-60
2024/01/31 01:59:04;;;;;;;5.40;3.97;;;;;;;10.33;78.26;101784.13;10395149;28;20143;-62
2024/01/31 02:04:08;;;;;;;5.40;4.03;;;;;;;10.37;77.97;101782.13;10382880;28;20045;-61
2024/01/31 02:09:10;;;;;;;4.90;3.97;;;;;;;10.36;76.88;101791.94;10389616;28;20055;-62
2024/01/31 02:14:12;;;;;;;7.07;4.18;;;;;;;10.38;76.50;101795.34;10373020;28;20048;-63
2024/01/31 02:19:13;;;;;;;5.47;4.18;;;;;;;10.37;77.17;101790.13;10393089;28;20131;-61
2024/01/31 02:24:16;;;;;;;4.57;3.75;;;;;;;10.33;77.39;101797.44;10383414;28;20060;-62
2024/01/31 02:29:18;;;;;;;8.70;6.47;;;;;;;10.18;79.28;101768.97;10390490;28;20797;-61
2024/01/31 02:34:19;;;;;;;6.78;6.07;;;;;;;10.31;80.71;101790.44;10392866;28;20390;-62
2024/01/31 02:39:21;;;;;;;12.70;10.55;;;;;;;10.30;82.19;101794.91;10388897;28;20662;-62
2024/01/31 02:44:23;;;;;;;11.88;10.68;;;;;;;10.28;84.46;101791.44;10389867;28;20053;-60
2024/01/31 02:49:24;;;;;;;12.00;10.85;;;;;;;10.23;86.84;101786.38;10390235;28;20516;-61
2024/01/31 02:54:26;;;;;;;12.85;11.55;;;;;;;10.13;89.35;101771.84;10388851;28;20561;-61
2024/01/31 02:59:27;;;;;;;12.18;11.02;;;;;;;10.09;89.10;101780.97;10391176;28;20148;-63
2024/01/31 03:04:29;;;;;;;12.45;11.05;;;;;;;10.20;88.59;101796.34;10369326;28;20160;-62
2024/01/31 03:09:30;;;;;;;13.38;11.23;;;;;;;10.20;89.19;101791.88;10384142;28;20056;-62
2024/01/31 03:14:35;;;;;;;11.65;10.55;;;;;;;10.15;89.99;101796.59;10400651;28;20340;-62
2024/01/31 03:19:37;;;;;;;12.93;11.73;;;;;;;10.18;89.31;101792.91;10388484;28;20052;-61
2024/01/31 03:24:39;;;;;;;12.43;10.30;;;;;;;10.12;88.33;101799.44;10387407;28;20064;-61
2024/01/31 03:29:40;;;;;;;13.50;10.95;;;;;;;10.15;87.64;101801.91;10380649;28;20060;-62
2024/01/31 03:34:41;;;;;;;10.55;9.32;;;;;;;10.20;86.94;101810.50;10369499;28;20140;-62
2024/01/31 03:39:43;;;;;;;9.55;8.63;;;;;;;10.22;86.04;101813.97;10389533;28;20060;-61
2024/01/31 03:44:44;;;;;;;9.95;9.05;;;;;;;10.22;85.19;101827.25;10366702;28;20674;-61
2024/01/31 03:49:46;;;;;;;9.75;8.82;;;;;;;10.17;84.54;101809.81;10383816;28;20191;-61
2024/01/31 03:54:48;;;;;;;7.18;6.47;;;;;;;10.15;83.17;101839.16;10364705;28;20116;-61
2024/01/31 03:59:52;;;;;;;8.35;6.90;;;;;;;10.07;81.47;101828.06;10383545;28;20049;-61
2024/01/31 04:04:53;;;;;;;7.45;6.47;;;;;;;10.08;81.07;101827.97;10379463;28;20134;-61
2024/01/31 04:09:55;;;;;;;6.78;5.25;;;;;;;10.03;79.64;101840.69;10377417;28;20049;-61
2024/01/31 04:14:56;;;;;;;7.78;5.35;;;;;;;9.97;78.47;101834.81;10381724;28;20096;-61
2024/01/31 04:19:57;;;;;;;5.97;4.50;;;;;;;9.93;78.39;101838.59;10353647;28;20564;-61
2024/01/31 04:24:59;;;;;;;5.57;5.07;;;;;;;9.82;78.22;101821.41;10362329;28;20367;-62
2024/01/31 04:30:01;;;;;;;7.18;4.18;;;;;;;9.89;78.37;101832.56;10402442;28;20060;-61
2024/01/31 04:35:02;;;;;;;6.90;4.28;;;;;;;9.86;78.84;101860.19;10385019;28;20060;-63
2024/01/31 04:40:05;;;;;;;6.63;5.20;;;;;;;9.82;78.42;101849.81;10376920;28;20128;-61
2024/01/31 04:45:08;;;;;;;6.03;5.45;;;;;;;9.66;77.71;101837.28;10390176;28;20041;-61
2024/01/31 04:50:11;;;;;;;4.82;4.13;;;;;;;9.67;77.67;101848.78;10374368;28;20065;-62
2024/01/31 04:55:13;;;;;;;6.07;5.13;;;;;;;9.56;78.00;101836.03;10394487;28;20045;-62
2024/01/31 05:00:15;;;;;;;11.55;5.80;;;;;;;9.56;77.93;101846.66;10386027;28;20188;-61
2024/01/31 05:05:16;;;;;;;5.55;4.75;;;;;;;9.52;77.74;101847.78;10390646;28;20404;-61
2024/01/31 05:10:20;;;;;;;6.25;5.00;;;;;;;9.46;77.90;101850.75;10388900;28;20068;-62
2024/01/31 05:15:21;;;;;;;4.85;4.45;;;;;;;9.39;77.37;101860.81;10391860;28;20529;-62
2024/01/31 05:20:23;;;;;;;10.38;5.05;;;;;;;9.32;77.64;101870.88;10385109;28;20061;-62
2024/01/31 05:25:25;;;;;;;7.05;5.65;;;;;;;9.30;77.24;101855.94;10389009;28;20057;-60
2024/01/31 05:30:27;;;;;;;7.00;5.25;;;;;;;9.19;77.55;101853.84;10386088;28;20128;-62
2024/01/31 05:35:29;;;;;;;6.30;5.68;;;;;;;9.13;77.12;101848.81;10387357;28;20049;-62
2024/01/31 05:40:31;;;;;;;8.55;6.00;;;;;;;9.11;77.75;101855.97;10367341;28;20696;-62
2024/01/31 05:45:33;;;;;;;5.65;5.15;;;;;;;9.11;78.34;101859.53;10376173;28;20045;-62
2024/01/31 05:50:36;;;;;;;9.77;6.90;;;;;;;9.02;77.95;101844.88;10373586;28;20053;-63
2024/01/31 05:55:42;;;;;;;7.97;5.32;;;;;;;9.07;78.61;101842.00;10385556;28;20057;-61
2024/01/31 06:00:48;;;;;;;5.88;5.32;;;;;;;8.93;77.70;101816.13;10388753;28;20064;-63
2024/01/31 06:05:51;;;;;;;7.28;6.10;;;;;;;9.02;77.73;101815.66;10373041;28;20041;-63
2024/01/31 06:11:02;;;;;;;8.40;6.00;;;;;;;8.96;78.01;101825.72;10393303;28;20175;-61
2024/01/31 06:16:04;;;;;;;7.53;5.93;;;;;;;8.90;77.60;101823.34;10382857;28;20059;-61
2024/01/31 06:21:06;;;;;;;9.18;6.70;;;;;;;8.81;77.80;101836.16;10389580;28;21714;-62
2024/01/31 06:26:08;;;;;;;8.98;6.43;;;;;;;8.76;77.51;101835.50;10375174;28;20739;-62
2024/01/31 06:31:24;;;;;;;8.43;6.45;;;;;;;8.70;78.15;101840.25;10387763;28;20106;-62
2024/01/31 06:36:27;;;;;;;8.43;6.88;;;;;;;8.68;78.56;101858.91;10384701;28;20137;-61
2024/01/31 06:41:29;;;;;;;9.75;7.47;;;;;;;8.68;78.58;101864.22;10388454;28;20064;-62
2024/01/31 06:46:31;;;;;;;8.10;7.30;;;;;;;8.65;78.60;101875.00;10382112;28;20148;-62
2024/01/31 06:51:33;;;;;;;8.55;7.20;;;;;;;8.67;79.08;101879.28;10391037;28;20675;-61
2024/01/31 06:56:35;;;;;;;8.43;7.50;;;;;;;8.70;79.37;101880.94;10363662;28;20116;-62
2024/01/31 07:01:37;;;;;;;9.15;7.43;;;;;;;8.67;78.84;101883.72;10350186;28;20060;-62
2024/01/31 07:06:38;;;;;;;8.30;6.60;;;;;;;8.60;78.65;101887.59;10394924;28;20048;-63
2024/01/31 07:11:39;;;;;;;8.68;7.75;;;;;;;8.56;78.92;101878.06;10378020;28;20211;-63
2024/01/31 07:16:42;;;;;;;8.02;7.22;;;;;;;8.60;79.23;101890.25;10386049;28;20127;-62
2024/01/31 07:21:44;;;;;;;8.38;7.20;;;;;;;8.62;79.62;101896.38;10378497;28;20523;-62
2024/01/31 07:26:45;;;;;;;9.27;6.72;;;;;;;8.67;80.08;101892.53;10387941;28;20045;-61
2024/01/31 07:31:49;;;;;;;9.35;8.25;;;;;;;8.67;79.64;101897.84;10364082;28;20162;-62
2024/01/31 07:36:52;;;;;;;8.82;7.22;;;;;;;8.65;80.05;101901.53;10371510;28;20148;-61
2024/01/31 07:41:53;;;;;;;8.20;7.35;;;;;;;8.67;80.30;101902.31;10386264;28;20092;-60
2024/01/31 07:46:55;;;;;;;11.38;7.90;;;;;;;8.62;80.28;101909.66;10380190;28;20374;-62
2024/01/31 07:51:59;;;;;;;9.07;7.65;;;;;;;8.69;80.96;101900.44;10370773;28;20057;-63
2024/01/31 07:57:01;;;;;;;11.02;7.53;;;;;;;8.77;80.64;101898.31;10381081;28;20057;-62
2024/01/31 08:02:03;;;;;;;10.85;8.52;;;;;;;8.67;80.67;101897.84;10379786;28;20060;-60
2024/01/31 08:07:05;;;;;;;9.07;7.38;;;;;;;8.68;82.01;101890.78;10385427;28;20056;-61
2024/01/31 08:12:07;;;;;;;10.93;7.60;;;;;;;8.76;81.88;101893.91;10389746;28;20052;-61
2024/01/31 08:17:11;;;;;;;12.10;9.02;;;;;;;8.83;81.82;101890.03;10387878;28;20052;-63
2024/01/31 08:22:13;;;;;;;12.73;8.45;;;;;;;8.88;80.66;101886.31;10385551;28;20057;-62
2024/01/31 08:27:17;;;;;;;11.55;8.02;;;;;;;8.93;80.57;101878.97;10389783;28;20096;-62
2024/01/31 08:32:20;;;;;;;9.00;7.60;;;;;;;9.05;80.37;101882.84;10382338;28;20044;-64
2024/01/31 08:37:22;;;;;;;9.00;8.00;;;;;;;9.08;78.82;101894.19;10369071;28;20057;-62
2024/01/31 08:42:28;;;;;;;10.65;8.32;;;;;;;9.08;78.19;101888.88;10371404;28;20107;-63
2024/01/31 08:47:29;;;;;;;10.10;7.80;;;;;;;9.18;78.71;101891.94;10359595;28;20056;-62
2024/01/31 08:52:32;;;;;;;10.15;7.90;;;;;;;9.29;78.98;101902.94;10391869;28;21490;-63
2024/01/31 08:57:33;;;;;;;11.05;7.75;;;;;;;9.35;77.96;101897.31;10374264;28;20052;-61
2024/01/31 09:02:35;;;;;;;11.30;8.45;;;;;;;9.27;77.72;101894.16;10391226;28;20152;-61
2024/01/31 09:07:37;;;;;;;9.18;8.13;;;;;;;9.24;77.76;101893.47;10367671;28;20112;-61
2024/01/31 09:12:38;;;;;;;10.25;8.55;;;;;;;9.25;77.36;101896.03;10390685;28;20052;-60
2024/01/31 09:17:41;;;;;;;9.68;8.05;;;;;;;9.23;76.95;101897.03;10371558;28;20049;-62
2024/01/31 09:22:42;;;;;;;9.00;8.07;;;;;;;9.32;76.81;101893.94;10392243;28;20061;-62
2024/01/31 09:27:44;;;;;;;9.93;8.93;;;;;;;9.41;76.11;101903.25;10391871;28;20193;-62
2024/01/31 09:32:46;;;;;;;156.60;140.10;;;;;;;9.37;76.01;101905.22;10376423;28;20053;-62
2024/01/31 09:37:48;;;;;;;16.33;13.43;;;;;;;9.48;75.23;101905.53;10380947;28;20060;-62
2024/01/31 09:42:51;;;;;;;9.93;8.40;;;;;;;9.47;74.69;101906.47;10387714;28;20162;-61
2024/01/31 09:47:57;;;;;;;15.35;13.15;;;;;;;9.44;73.70;101874.72;10387121;28;20095;-62
2024/01/31 09:53:01;;;;;;;10.52;9.25;;;;;;;9.54;73.35;101880.44;10379776;28;20045;-61
2024/01/31 09:58:05;;;;;;;9.32;8.20;;;;;;;9.63;72.53;101889.75;10385264;28;22823;-62
2024/01/31 10:03:09;;;;;;;36.80;33.03;;;;;;;9.65;72.20;101883.44;10393858;28;20052;-62
2024/01/31 10:08:11;;;;;;;17.13;15.60;;;;;;;9.75;71.23;101878.50;10379087;28;20160;-64
2024/01/31 10:13:13;;;;;;;9.27;8.38;;;;;;;9.86;67.65;101897.44;10394593;28;20505;-64
2024/01/31 10:18:18;;;;;;;7.47;6.65;;;;;;;9.80;67.24;101894.22;10375068;28;20049;-64
2024/01/31 10:23:19;;;;;;;5.30;4.78;;;;;;;9.99;61.85;101884.34;10390745;28;20057;-64
2024/01/31 10:28:21;;;;;;;3.72;2.22;;;;;;;10.04;60.59;101868.13;10389945;28;20530;-63
2024/01/31 10:33:24;;;;;;;11.75;10.82;;;;;;;10.31;60.03;101871.13;10396431;28;20068;-62
2024/01/31 10:38:27;;;;;;;4.85;3.72;;;;;;;11.38;58.46;101857.25;10388609;28;20049;-64
2024/01/31 10:43:29;;;;;;;5.18;3.85;;;;;;;12.28;56.22;101853.66;10395659;28;20053;-63
2024/01/31 10:48:30;;;;;;;4.82;3.80;;;;;;;13.16;52.58;101856.03;10389795;28;20056;-63
2024/01/31 10:53:34;;;;;;;5.65;3.30;;;;;;;12.65;55.00;101856.66;10372486;28;20041;-63
2024/01/31 10:58:36;;;;;;;3.75;3.08;;;;;;;11.93;53.84;101854.00;10384858;28;20048;-62
2024/01/31 11:03:43;;;;;;;1.90;1.70;;;;;;;11.58;54.04;101870.28;10390341;28;20044;-62
2024/01/31 11:08:47;;;;;;;2.50;1.90;;;;;;;10.98;55.71;101880.88;10376805;28;20541;-62
2024/01/31 11:13:56;;;;;;;3.27;1.87;;;;;;;10.73;56.63;101882.22;10387474;28;20037;-64
2024/01/31 11:18:58;;;;;;;4.50;2.70;;;;;;;10.56;59.61;101886.66;10385438;28;20077;-65
2024/01/31 11:24:00;;;;;;;6.35;3.20;;;;;;;10.37;59.66;101888.59;10391100;28;20060;-64
2024/01/31 11:29:03;;;;;;;4.82;2.85;;;;;;;10.41;59.70;101872.38;10385637;28;20057;-62
2024/01/31 11:34:04;;;;;;;4.63;2.90;;;;;;;10.45;59.88;101851.81;10386325;28;21257;-64
2024/01/31 11:39:07;;;;;;;2.22;1.50;;;;;;;10.29;56.91;101877.50;10364166;28;20052;-62
2024/01/31 11:44:10;;;;;;;8.88;2.28;;;;;;;10.16;56.72;101872.81;10388167;28;20536;-66
2024/01/31 11:49:12;;;;;;;3.47;1.92;;;;;;;10.38;58.58;101864.56;10389734;28;20068;-63
2024/01/31 11:54:14;;;;;;;2.42;1.80;;;;;;;10.68;56.97;101853.19;10385026;28;20056;-62
2024/01/31 11:59:15;;;;;;;2.83;2.20;;;;;;;11.06;54.92;101830.66;10383225;28;20045;-62
2024/01/31 12:04:17;;;;;;;2.55;1.83;;;;;;;11.17;53.78;101817.59;10385821;28;20132;-63
2024/01/31 12:09:18;;;;;;;2.67;1.20;;;;;;;11.37;54.38;101796.91;10375584;28;20073;-63
2024/01/31 12:14:20;;;;;;;2.75;1.58;;;;;;;11.52;52.62;101787.13;10390198;28;20092;-62
2024/01/31 12:19:23;;;;;;;2.95;2.65;;;;;;;11.44;51.94;101777.78;10361608;28;20049;-62
2024/01/31 12:24:25;;;;;;;6.35;5.75;;;;;;;11.17;50.67;101769.59;10349507;28;20199;-63
2024/01/31 12:29:26;;;;;;;1.98;1.77;;;;;;;11.81;50.13;101762.22;10364082;28;20048;-61
2024/01/31 12:34:27;;;;;;;3.08;0.98;;;;;;;12.49;47.81;101760.63;10334233;28;20056;-64
2024/01/31 12:39:29;;;;;;;1.95;1.33;;;;;;;12.08;48.96;101720.56;10390579;28;20113;-63
2024/01/31 12:44:31;;;;;;;2.47;1.10;;;;;;;12.07;48.18;101734.84;10397376;28;20052;-61
2024/01/31 12:49:38;;;;;;;1.13;0.60;;;;;;;11.80;48.45;101725.78;10391554;28;20049;-62
2024/01/31 12:54:39;;;;;;;2.35;0.82;;;;;;;11.50;49.77;101707.22;10352096;28;20057;-61
2024/01/31 12:59:41;;;;;;;1.17;0.85;;;;;;;11.36;50.70;101688.53;10380607;28;20045;-63
2024/01/31 13:04:42;;;;;;;3.63;1.20;;;;;;;11.33;49.95;101684.22;10390168;28;20843;-63
2024/01/31 13:09:44;;;;;;;1.40;1.15;;;;;;;13.85;45.48;101687.28;10389930;28;20143;-63
2024/01/31 13:14:46;;;;;;;4.22;1.73;;;;;;;15.36;40.78;101654.59;10391299;28;20584;-63
2024/01/31 13:19:48;;;;;;;3.85;1.42;;;;;;;13.94;43.95;101653.66;10389220;28;20175;-62
2024/01/31 13:24:49;;;;;;;3.17;1.77;;;;;;;14.22;43.48;101652.50;10387851;28;20049;-65
2024/01/31 13:29:51;;;;;;;3.50;1.63;;;;;;;17.43;39.27;101658.22;10394671;28;20048;-65
2024/01/31 13:34:54;;;;;;;3.00;1.33;;;;;;;17.28;38.65;101660.44;10381489;28;20087;-65
2024/01/31 13:39:55;;;;;;;3.13;1.55;;;;;;;17.48;37.04;101664.91;10396645;28;20992;-66
2024/01/31 13:44:57;;;;;;;1.90;1.50;;;;;;;19.41;34.57;101651.91;10394891;28;20061;-64
2024/01/31 13:49:58;;;;;;;2.78;1.52;;;;;;;17.93;35.52;101682.56;10394657;28;20056;-65
2024/01/31 13:55:00;;;;;;;2.42;1.30;;;;;;;16.65;37.50;101668.44;10394033;28;20049;-65
2024/01/31 14:00:05;;;;;;;2.55;1.23;;;;;;;15.53;39.60;101666.69;10388942;28;20096;-64
2024/01/31 14:05:10;;;;;;;2.45;1.05;;;;;;;14.19;41.96;101655.41;10392023;28;20052;-64
2024/01/31 14:10:11;;;;;;;1.77;1.23;;;;;;;15.63;40.57;101660.59;10391940;28;20052;-64
2024/01/31 14:15:13;;;;;;;2.88;1.35;;;;;;;14.54;41.01;101656.44;10379274;28;20051;-65
2024/01/31 14:20:14;;;;;;;5.18;1.88;;;;;;;13.59;44.22;101643.69;10403941;28;20619;-64
2024/01/31 14:25:16;;;;;;;4.07;1.02;;;;;;;12.72;44.92;101638.91;10367919;28;20234;-64
2024/01/31 14:30:18;;;;;;;2.40;0.98;;;;;;;12.61;45.68;101652.13;10401644;28;20064;-66
2024/01/31 14:35:21;;;;;;;3.28;1.25;;;;;;;12.42;46.14;101619.59;10379838;28;20056;-64
2024/01/31 14:40:22;;;;;;;4.50;1.90;;;;;;;12.36;46.71;101627.03;10389823;28;20057;-65
2024/01/31 14:45:24;;;;;;;2.28;1.50;;;;;;;12.01;47.50;101626.69;10383038;28;20127;-65
2024/01/31 14:50:28;;;;;;;5.93;1.50;;;;;;;11.86;47.99;101649.84;10394524;28;20048;-65
2024/01/31 14:55:36;;;;;;;2.55;1.27;;;;;;;11.63;48.80;101640.63;10388755;28;20064;-63
2024/01/31 15:00:37;;;;;;;2.50;1.33;;;;;;;11.62;48.81;101646.91;10387871;28;20110;-64
2024/01/31 15:05:39;;;;;;;2.65;1.30;;;;;;;11.57;49.62;101660.53;10387176;28;20507;-64
2024/01/31 15:10:41;;;;;;;3.03;1.67;;;;;;;11.53;49.87;101652.81;10390515;28;20376;-63
2024/01/31 15:15:42;;;;;;;2.33;1.15;;;;;;;11.47;50.31;101646.94;10385814;28;20049;-63
2024/01/31 15:20:44;;;;;;;2.78;0.90;;;;;;;11.31;50.32;101630.16;10385195;28;20568;-64
2024/01/31 15:25:46;;;;;;;3.83;1.52;;;;;;;11.15;50.66;101638.22;10391325;28;22865;-65
2024/01/31 15:30:49;;;;;;;4.88;2.83;;;;;;;10.91;50.66;101590.84;10389934;28;20052;-64
2024/01/31 15:35:50;;;;;;;4.53;0.98;;;;;;;10.99;51.20;101635.66;10393402;28;20581;-64
2024/01/31 15:40:52;;;;;;;5.65;1.90;;;;;;;11.00;51.12;101617.84;10375806;28;20045;-63
2024/01/31 15:45:54;;;;;;;3.10;1.50;;;;;;;10.99;51.28;101605.47;10385268;28;20051;-62
2024/01/31 15:50:55;;;;;;;2.88;1.40;;;;;;;10.94;51.54;101601.31;10382927;28;20138;-64
2024/01/31 15:56:00;;;;;;;2.30;1.13;;;;;;;10.83;51.34;101598.41;10379399;28;20426;-63
2024/01/31 16:01:01;;;;;;;;;;;;;;;10.54;51.89;101561.06;10366308;28;20084;-62
2024/01/31 16:06:04;;;;;;;17.17;7.07;;;;;;;10.69;52.21;101585.06;10376066;28;20304;-63
2024/01/31 16:11:05;;;;;;;3.72;2.05;;;;;;;10.57;52.24;101579.53;10380863;28;20101;-64
2024/01/31 16:16:08;;;;;;;40.97;28.52;;;;;;;10.47;52.37;101585.50;10387299;28;20053;-65
2024/01/31 16:21:10;;;;;;;8.95;5.53;;;;;;;10.31;52.44;101588.16;10388733;28;20184;-63
2024/01/31 16:26:14;;;;;;;5.57;1.70;;;;;;;10.27;53.09;101571.53;10392630;28;20053;-64
2024/01/31 16:31:16;;;;;;;4.38;3.33;;;;;;;10.19;53.46;101558.66;10389825;28;20522;-65
2024/01/31 16:36:19;;;;;;;7.80;4.43;;;;;;;10.02;53.81;101572.91;10373886;28;20054;-63
2024/01/31 16:41:25;;;;;;;19.73;12.25;;;;;;;9.93;54.57;101567.28;10376259;28;20056;-62
2024/01/31 16:46:28;;;;;;;8.13;4.82;;;;;;;9.93;54.82;101561.97;10381482;28;20132;-64
2024/01/31 16:51:30;;;;;;;5.35;3.45;;;;;;;9.92;54.62;101563.75;10383123;28;20999;-63
2024/01/31 16:56:31;;;;;;;6.10;4.07;;;;;;;9.94;54.92;101558.34;10378095;28;20045;-64
2024/01/31 17:01:33;;;;;;;4.10;1.92;;;;;;;9.95;54.90;101560.06;10377432;28;20055;-65
2024/01/31 17:06:39;;;;;;;3.38;2.42;;;;;;;9.87;55.70;101550.72;10395942;28;20766;-62
2024/01/31 17:11:41;;;;;;;2.63;1.77;;;;;;;9.85;55.67;101549.94;10390692;28;20123;-63
2024/01/31 17:16:44;;;;;;;4.78;2.50;;;;;;;9.70;56.27;101546.34;10367982;28;21436;-63
2024/01/31 17:21:46;;;;;;;4.07;1.92;;;;;;;9.68;56.81;101547.38;10369339;28;20545;-63
2024/01/31 17:26:47;;;;;;;3.08;1.50;;;;;;;9.62;56.95;101542.41;10375674;28;20534;-62
2024/01/31 17:31:49;;;;;;;3.80;1.48;;;;;;;9.63;57.07;101550.28;10389203;28;20048;-63
2024/01/31 17:36:50;;;;;;;4.43;1.85;;;;;;;9.67;57.29;101541.22;10391278;28;20418;-64
2024/01/31 17:41:52;;;;;;;8.95;2.90;;;;;;;9.67;57.70;101537.72;10396791;28;20045;-64
2024/01/31 17:46:53;;;;;;;3.85;2.42;;;;;;;9.69;57.59;101530.50;10389817;28;20725;-63
2024/01/31 17:51:56;;;;;;;2.97;1.92;;;;;;;9.58;57.77;101509.84;10391999;28;20064;-62
2024/01/31 17:56:57;;;;;;;4.55;2.25;;;;;;;9.37;58.48;101485.31;10387590;28;20578;-63
2024/01/31 18:01:59;;;;;;;4.53;2.40;;;;;;;9.36;58.15;101499.53;10387048;28;20068;-63
2024/01/31 18:07:02;;;;;;;4.25;2.40;;;;;;;9.32;58.70;101497.97;10391532;28;20163;-66
2024/01/31 18:12:04;;;;;;;4.53;3.97;;;;;;;9.24;58.98;101463.03;10382200;28;20044;-63
2024/01/31 18:17:21;;;;;;;6.07;3.75;;;;;;;9.25;59.13;101497.47;10396327;28;20076;-64
2024/01/31 18:22:23;;;;;;;6.63;3.03;;;;;;;9.16;59.49;101493.53;10388373;28;20057;-64
2024/01/31 18:27:25;;;;;;;6.50;2.28;;;;;;;9.19;59.62;101493.34;10361200;28;20057;-63
2024/01/31 18:32:27;;;;;;;5.13;2.70;;;;;;;9.11;59.51;101505.34;10384044;28;20099;-65
2024/01/31 18:37:30;;;;;;;4.97;2.55;;;;;;;8.99;60.03;101499.75;10370292;28;20188;-63
2024/01/31 18:42:33;;;;;;;3.70;2.42;;;;;;;8.83;60.25;101493.56;10373551;28;20133;-64
2024/01/31 18:47:40;;;;;;;7.07;2.60;;;;;;;8.84;60.63;101488.16;10391656;28;20064;-64
2024/01/31 18:52:42;;;;;;;4.70;2.17;;;;;;;8.74;61.07;101497.56;10381192;28;20072;-64
2024/01/31 18:57:43;;;;;;;3.80;2.65;;;;;;;8.67;62.30;101473.09;10391356;28;20418;-65
2024/01/31 19:02:46;;;;;;;6.38;3.20;;;;;;;8.64;62.41;101485.69;10386440;28;20048;-62
2024/01/31 19:07:48;;;;;;;3.25;2.22;;;;;;;8.65;62.98;101493.59;10386157;28;20052;-67
2024/01/31 19:12:51;;;;;;;4.78;3.08;;;;;;;8.71;62.84;101503.03;10394695;28;20735;-63
2024/01/31 19:17:53;;;;;;;3.60;2.15;;;;;;;8.82;62.97;101489.19;10389564;28;20064;-62
2024/01/31 19:22:56;;;;;;;5.63;2.30;;;;;;;8.89;63.01;101500.31;10388421;28;20057;-63
2024/01/31 19:27:57;;;;;;;3.20;2.33;;;;;;;8.94;62.54;101504.44;10393943;28;20738;-64
2024/01/31 19:33:01;;;;;;;3.83;2.60;;;;;;;8.93;62.87;101470.00;10387230;28;20049;-63
2024/01/31 19:38:03;;;;;;;3.20;1.92;;;;;;;8.83;62.73;101449.25;10380133;28;20096;-64
2024/01/31 19:43:05;;;;;;;3.08;2.33;;;;;;;8.85;62.92;101452.69;10368436;28;20049;-63
2024/01/31 19:48:07;;;;;;;4.00;2.83;;;;;;;8.90;62.99;101448.94;10377782;28;20095;-64
2024/01/31 19:53:11;;;;;;;5.57;3.38;;;;;;;8.75;63.39;101424.94;10384595;28;20074;-64
2024/01/31 19:58:12;;;;;;;3.45;2.55;;;;;;;8.69;63.34;101427.06;10374901;28;20573;-63
2024/01/31 20:03:13;;;;;;;3.65;3.08;;;;;;;8.55;63.61;101401.25;10389615;28;21298;-65
2024/01/31 20:08:19;;;;;;;3.58;2.55;;;;;;;8.66;63.73;101409.50;10393644;28;20144;-65
2024/01/31 20:13:20;;;;;;;6.00;3.40;;;;;;;8.62;63.94;101381.41;10383706;28;20658;-64
2024/01/31 20:18:22;;;;;;;4.68;2.92;;;;;;;8.65;63.89;101386.56;10388696;28;20202;-64
2024/01/31 20:23:24;;;;;;;6.53;2.95;;;;;;;8.60;64.15;101377.97;10362307;28;20666;-64
2024/01/31 20:28:26;;;;;;;3.30;2.75;;;;;;;8.55;63.82;101370.25;10390765;28;20052;-64
2024/01/31 20:33:27;;;;;;;7.13;4.10;;;;;;;8.57;64.08;101371.06;10390076;28;20049;-63
2024/01/31 20:38:29;;;;;;;5.95;3.20;;;;;;;8.35;64.11;101341.25;10392266;28;20202;-63
2024/01/31 20:43:31;;;;;;;4.20;2.90;;;;;;;8.58;64.25;101359.47;10366988;28;20051;-62
2024/01/31 20:48:35;;;;;;;5.30;3.13;;;;;;;8.59;64.49;101355.03;10396768;28;20044;-62
2024/01/31 20:53:42;;;;;;;3.47;2.70;;;;;;;8.58;64.21;101358.63;10356133;28;20049;-64
2024/01/31 20:58:45;;;;;;;4.03;2.38;;;;;;;8.60;64.71;101351.44;10372014;28;20059;-63
2024/01/31 21:03:47;;;;;;;5.40;3.97;;;;;;;8.61;64.13;101369.06;10397842;28;20124;-63
2024/01/31 21:08:49;;;;;;;4.38;2.53;;;;;;;8.62;65.27;101349.56;10391638;28;20052;-67
2024/01/31 21:13:51;;;;;;;2.95;2.65;;;;;;;8.65;64.98;101350.25;10366541;28;20104;-66
2024/01/31 21:18:55;;;;;;;3.95;3.05;;;;;;;8.64;64.51;101347.69;10393868;28;20068;-65
2024/01/31 21:24:00;;;;;;;4.80;2.90;;;;;;;8.63;65.03;101335.34;10388120;28;20056;-66
2024/01/31 21:29:02;;;;;;;3.95;3.10;;;;;;;8.67;65.49;101334.22;10388781;28;20053;-66
2024/01/31 21:34:03;;;;;;;4.72;2.97;;;;;;;8.52;64.85;101320.00;10393123;28;20049;-63
2024/01/31 21:39:06;;;;;;;6.30;4.05;;;;;;;8.61;65.05;101353.16;10369768;28;20058;-65
2024/01/31 21:44:08;;;;;;;5.93;4.50;;;;;;;8.42;64.95;101306.38;10389612;28;20045;-63
2024/01/31 21:49:10;;;;;;;5.53;3.33;;;;;;;8.70;64.90;101341.19;10390246;28;20133;-64
2024/01/31 21:54:11;;;;;;;3.90;2.90;;;;;;;8.68;64.91;101325.34;10381698;28;20592;-63
2024/01/31 21:59:13;;;;;;;5.28;3.13;;;;;;;8.68;64.54;101328.00;10394198;28;20049;-64
2024/01/31 22:04:14;;;;;;;4.10;3.10;;;;;;;8.72;65.18;101323.34;10373321;28;20055;-63
2024/01/31 22:09:30;;;;;;;;;;;;;;;8.74;64.80;101325.00;10390070;28;20718;-64
2024/01/31 22:14:31;;;;;;;3.50;3.20;;;;;;;8.76;64.94;101331.06;10393382;28;20664;-62
2024/01/31 22:19:37;;;;;;;4.13;3.03;;;;;;;8.75;65.06;101341.75;10395350;28;20742;-63
2024/01/31 22:24:39;;;;;;;5.78;3.63;;;;;;;8.78;65.14;101345.13;10386561;28;20057;-63
2024/01/31 22:29:40;;;;;;;5.85;2.80;;;;;;;8.78;64.68;101345.13;10376575;28;20490;-62
2024/01/31 22:34:42;;;;;;;5.03;3.17;;;;;;;8.76;64.46;101339.03;10372557;28;20514;-64
2024/01/31 22:39:43;;;;;;;3.33;2.30;;;;;;;8.69;65.02;101348.25;10381369;28;20079;-62
2024/01/31 22:44:45;;;;;;;2.47;2.22;;;;;;;8.67;64.96;101339.53;10381155;28;20195;-63
2024/01/31 22:49:46;;;;;;;3.88;2.70;;;;;;;8.74;64.85;101340.06;10386821;28;20052;-63
2024/01/31 22:54:48;;;;;;;3.05;2.30;;;;;;;8.60;64.88;101330.19;10392487;28;20836;-62
2024/01/31 23:00:03;;;;;;;3.05;2.17;;;;;;;8.52;65.32;101312.03;10382622;28;20634;-63
2024/01/31 23:05:05;;;;;;;4.25;2.60;;;;;;;8.54;64.85;101318.16;10387504;28;20204;-63
2024/01/31 23:10:07;;;;;;;3.30;2.90;;;;;;;8.53;64.93;101305.81;10387630;28;20136;-64
2024/01/31 23:15:10;;;;;;;2.85;2.55;;;;;;;8.56;65.72;101307.44;10386242;28;20044;-63